This is the latest recevied weather packets stored in our database for station/object KO4FR. If no packets are shown the sender has not sent any weather packets the latest 10 day(s).
| Time | Temp. | Humidity | Pressure | Rain* | Wind** | Luminosity | Snow |
|---|---|---|---|---|---|---|---|
| 1778088007 | 18.89° C | 53% | 1013 hPa | 0 mm | - | - | - |
| 1778087707 | 18.33° C | 47% | 1013 hPa | 0 mm | - | - | - |
| 1778087407 | 18.33° C | 41% | 1013 hPa | 0.25 mm | - | - | - |
| 1778087107 | 17.78° C | 40% | 1012.9 hPa | 0.25 mm | - | - | - |
| 1778086807 | 17.78° C | 44% | 1012.9 hPa | 0.25 mm | - | - | - |
| 1778086507 | 17.78° C | 43% | 1012.9 hPa | 0.76 mm | - | - | - |
| 1778086208 | 17.78° C | 44% | 1012.9 hPa | 0.76 mm | - | - | - |
| 1778085907 | 17.78° C | 38% | 1012.9 hPa | 0.76 mm | - | - | - |
| 1778085607 | 17.78° C | 39% | 1012.8 hPa | 0.76 mm | - | - | - |
| 1778085307 | 17.78° C | 32% | 1012.7 hPa | 0.76 mm | - | - | - |
| 1778085007 | 17.78° C | 32% | 1012.8 hPa | 0.76 mm | - | - | - |
| 1778084707 | 17.22° C | 27% | 1013 hPa | 1.02 mm | - | - | - |
| 1778084407 | 17.22° C | 29% | 1013.2 hPa | 1.02 mm | - | - | - |
| 1778084107 | 17.22° C | 33% | 1013.3 hPa | 1.02 mm | - | - | - |
| 1778083807 | 17.22° C | 39% | 1013.3 hPa | 0.76 mm | - | - | - |
| 1778083507 | 17.22° C | 43% | 1013.3 hPa | 0.76 mm | - | - | - |
| 1778083207 | 17.22° C | 46% | 1013.4 hPa | 0.76 mm | - | - | - |
| 1778082907 | 17.78° C | 52% | 1013.4 hPa | 0.25 mm | - | - | - |
| 1778082607 | 17.78° C | 49% | 1014 hPa | 0.25 mm | - | - | - |
| 1778082307 | 17.78° C | 49% | 1014.1 hPa | 0.25 mm | - | - | - |
| 1778082007 | 17.78° C | 52% | 1014.1 hPa | 0.25 mm | - | - | - |
| 1778081707 | 17.78° C | 56% | 1014 hPa | 0.25 mm | - | - | - |
| 1778081407 | 17.78° C | 59% | 1014 hPa | 0.25 mm | - | - | - |
| 1778081107 | 17.78° C | 62% | 1013.9 hPa | 0 mm | - | - | - |
| 1778080807 | 17.78° C | 63% | 1013.9 hPa | 0 mm | - | - | - |
* Rain latest hour (hover to see other rain measurements)
** Current wind speed in m/s (hover to see current wind gust speed)